sensor_id;sensor_type;location;lat;lon;timestamp;pressure;altitude;pressure_sealevel;temperature;humidity
11648;BME280;5880;52.342;9.662;2023-02-23T00:01:51;100534.06;;;12.23;54.16
11648;BME280;5880;52.342;9.662;2023-02-23T00:04:17;100544.44;;;12.21;54.21
11648;BME280;5880;52.342;9.662;2023-02-23T00:06:45;100540.53;;;12.17;54.57
11648;BME280;5880;52.342;9.662;2023-02-23T00:09:11;100549.34;;;12.19;54.60
11648;BME280;5880;52.342;9.662;2023-02-23T00:11:53;100536.97;;;12.16;54.22
11648;BME280;5880;52.342;9.662;2023-02-23T00:14:20;100544.59;;;12.14;54.32
11648;BME280;5880;52.342;9.662;2023-02-23T00:16:52;100535.19;;;12.10;54.44
11648;BME280;5880;52.342;9.662;2023-02-23T00:19:18;100531.63;;;12.10;54.44
11648;BME280;5880;52.342;9.662;2023-02-23T00:21:45;100536.28;;;12.09;54.33
11648;BME280;5880;52.342;9.662;2023-02-23T00:24:13;100536.50;;;12.08;54.47
11648;BME280;5880;52.342;9.662;2023-02-23T00:26:40;100529.38;;;12.07;54.53
11648;BME280;5880;52.342;9.662;2023-02-23T00:29:12;100531.53;;;12.04;54.35
11648;BME280;5880;52.342;9.662;2023-02-23T00:31:42;100534.50;;;12.03;54.50
11648;BME280;5880;52.342;9.662;2023-02-23T00:34:10;100529.28;;;12.01;54.51
11648;BME280;5880;52.342;9.662;2023-02-23T00:36:37;100534.50;;;12.03;54.71
11648;BME280;5880;52.342;9.662;2023-02-23T00:39:07;100541.06;;;12.02;54.75
11648;BME280;5880;52.342;9.662;2023-02-23T00:41:48;100534.75;;;12.01;54.86
11648;BME280;5880;52.342;9.662;2023-02-23T00:44:14;100530.94;;;12.02;54.67
11648;BME280;5880;52.342;9.662;2023-02-23T00:46:42;100536.41;;;12.02;54.64
11648;BME280;5880;52.342;9.662;2023-02-23T00:49:11;100537.00;;;12.04;54.97
11648;BME280;5880;52.342;9.662;2023-02-23T00:51:37;100538.91;;;12.04;54.89
11648;BME280;5880;52.342;9.662;2023-02-23T00:54:04;100534.84;;;12.07;55.23
11648;BME280;5880;52.342;9.662;2023-02-23T00:56:30;100535.91;;;12.06;54.89
11648;BME280;5880;52.342;9.662;2023-02-23T00:58:56;100549.97;;;12.09;55.17
11648;BME280;5880;52.342;9.662;2023-02-23T01:01:23;100547.59;;;12.13;55.35
11648;BME280;5880;52.342;9.662;2023-02-23T01:03:50;100550.06;;;12.14;55.33
11648;BME280;5880;52.342;9.662;2023-02-23T01:06:18;100549.81;;;12.16;55.39
11648;BME280;5880;52.342;9.662;2023-02-23T01:08:48;100553.16;;;12.18;55.49
11648;BME280;5880;52.342;9.662;2023-02-23T01:11:20;100545.53;;;12.20;55.41
11648;BME280;5880;52.342;9.662;2023-02-23T01:13:47;100555.41;;;12.21;55.28
11648;BME280;5880;52.342;9.662;2023-02-23T01:16:18;100547.19;;;12.21;55.26
11648;BME280;5880;52.342;9.662;2023-02-23T01:18:45;100555.16;;;12.22;55.16
11648;BME280;5880;52.342;9.662;2023-02-23T01:21:35;100559.56;;;12.23;55.09
11648;BME280;5880;52.342;9.662;2023-02-23T01:24:02;100560.66;;;12.22;55.17
11648;BME280;5880;52.342;9.662;2023-02-23T01:26:35;100552.44;;;12.22;55.37
11648;BME280;5880;52.342;9.662;2023-02-23T01:29:14;100557.31;;;12.20;55.41
11648;BME280;5880;52.342;9.662;2023-02-23T01:31:44;100559.56;;;12.23;55.53
11648;BME280;5880;52.342;9.662;2023-02-23T01:34:12;100565.28;;;12.22;55.18
11648;BME280;5880;52.342;9.662;2023-02-23T01:36:40;100566.38;;;12.21;55.17
11648;BME280;5880;52.342;9.662;2023-02-23T01:39:16;100565.53;;;12.20;55.03
11648;BME280;5880;52.342;9.662;2023-02-23T01:41:44;100564.13;;;12.18;55.33
11648;BME280;5880;52.342;9.662;2023-02-23T01:46:47;100562.94;;;12.14;55.29
11648;BME280;5880;52.342;9.662;2023-02-23T01:49:22;100574.22;;;12.17;55.83
11648;BME280;5880;52.342;9.662;2023-02-23T01:52:02;100565.19;;;12.17;55.85
11648;BME280;5880;52.342;9.662;2023-02-23T01:54:36;100566.00;;;12.17;55.77
11648;BME280;5880;52.342;9.662;2023-02-23T01:57:05;100570.19;;;12.20;55.89
11648;BME280;5880;52.342;9.662;2023-02-23T01:59:38;100568.00;;;12.22;56.19
11648;BME280;5880;52.342;9.662;2023-02-23T02:02:04;100563.84;;;12.19;56.03
11648;BME280;5880;52.342;9.662;2023-02-23T02:04:35;100572.75;;;12.27;56.02
11648;BME280;5880;52.342;9.662;2023-02-23T02:07:15;100564.31;;;12.28;56.35
11648;BME280;5880;52.342;9.662;2023-02-23T02:09:43;100564.91;;;12.30;56.68
11648;BME280;5880;52.342;9.662;2023-02-23T02:12:29;100566.00;;;12.29;56.46
11648;BME280;5880;52.342;9.662;2023-02-23T02:14:57;100575.94;;;12.35;56.61
11648;BME280;5880;52.342;9.662;2023-02-23T02:17:45;100577.97;;;12.40;56.71
11648;BME280;5880;52.342;9.662;2023-02-23T02:20:46;100572.72;;;12.38;56.91
11648;BME280;5880;52.342;9.662;2023-02-23T02:23:53;100574.72;;;12.43;56.95
11648;BME280;5880;52.342;9.662;2023-02-23T02:30:04;100572.66;;;12.50;57.02
11648;BME280;5880;52.342;9.662;2023-02-23T02:32:59;100575.75;;;12.54;57.32
11648;BME280;5880;52.342;9.662;2023-02-23T02:38:55;100585.75;;;12.60;57.18
11648;BME280;5880;52.342;9.662;2023-02-23T02:41:56;100578.09;;;12.62;57.39
11648;BME280;5880;52.342;9.662;2023-02-23T02:44:52;100576.78;;;12.64;57.21
11648;BME280;5880;52.342;9.662;2023-02-23T02:47:37;100579.25;;;12.66;57.30
11648;BME280;5880;52.342;9.662;2023-02-23T02:50:37;100576.03;;;12.69;57.41
11648;BME280;5880;52.342;9.662;2023-02-23T02:53:13;100576.34;;;12.73;57.40
11648;BME280;5880;52.342;9.662;2023-02-23T02:55:43;100575.84;;;12.76;57.48
11648;BME280;5880;52.342;9.662;2023-02-23T02:58:13;100564.63;;;12.77;57.44
11648;BME280;5880;52.342;9.662;2023-02-23T03:00:47;100563.56;;;12.78;57.26
11648;BME280;5880;52.342;9.662;2023-02-23T03:03:41;100565.00;;;12.81;57.45
11648;BME280;5880;52.342;9.662;2023-02-23T03:06:35;100559.75;;;12.79;57.26
11648;BME280;5880;52.342;9.662;2023-02-23T03:09:51;100570.47;;;12.81;57.33
11648;BME280;5880;52.342;9.662;2023-02-23T03:13:04;100567.72;;;12.81;57.32
11648;BME280;5880;52.342;9.662;2023-02-23T03:19:30;100572.38;;;12.80;57.32
11648;BME280;5880;52.342;9.662;2023-02-23T03:22:25;100563.06;;;12.81;57.35
11648;BME280;5880;52.342;9.662;2023-02-23T03:26:05;100572.94;;;12.82;57.34
11648;BME280;5880;52.342;9.662;2023-02-23T03:28:40;100560.84;;;12.78;57.41
11648;BME280;5880;52.342;9.662;2023-02-23T03:35:08;100566.41;;;12.83;57.47
11648;BME280;5880;52.342;9.662;2023-02-23T03:38:09;100576.03;;;12.86;57.59
11648;BME280;5880;52.342;9.662;2023-02-23T03:40:56;100566.63;;;12.82;57.30
11648;BME280;5880;52.342;9.662;2023-02-23T03:43:57;100567.31;;;12.89;57.33
11648;BME280;5880;52.342;9.662;2023-02-23T03:46:45;100564.06;;;12.92;57.53
11648;BME280;5880;52.342;9.662;2023-02-23T03:49:35;100572.63;;;12.96;57.64
11648;BME280;5880;52.342;9.662;2023-02-23T03:52:38;100573.44;;;12.96;57.49
11648;BME280;5880;52.342;9.662;2023-02-23T03:55:31;100570.19;;;12.99;57.56
11648;BME280;5880;52.342;9.662;2023-02-23T03:58:26;100572.94;;;12.99;57.56
11648;BME280;5880;52.342;9.662;2023-02-23T04:01:12;100567.72;;;12.98;57.56
11648;BME280;5880;52.342;9.662;2023-02-23T04:03:58;100563.31;;;12.97;57.43
11648;BME280;5880;52.342;9.662;2023-02-23T04:06:46;100568.31;;;13.00;57.35
11648;BME280;5880;52.342;9.662;2023-02-23T04:09:31;100575.44;;;13.01;57.44
11648;BME280;5880;52.342;9.662;2023-02-23T04:12:36;100577.13;;;13.02;57.52
11648;BME280;5880;52.342;9.662;2023-02-23T04:15:33;100566.16;;;13.02;57.36
11648;BME280;5880;52.342;9.662;2023-02-23T04:18:06;100573.28;;;13.03;57.43
11648;BME280;5880;52.342;9.662;2023-02-23T04:20:32;100577.69;;;13.04;57.57
11648;BME280;5880;52.342;9.662;2023-02-23T04:22:57;100566.72;;;13.04;57.68
11648;BME280;5880;52.342;9.662;2023-02-23T04:25:23;100570.63;;;13.08;57.51
11648;BME280;5880;52.342;9.662;2023-02-23T04:27:50;100578.38;;;13.11;57.57
11648;BME280;5880;52.342;9.662;2023-02-23T04:30:16;100576.19;;;13.13;57.63
11648;BME280;5880;52.342;9.662;2023-02-23T04:32:42;100569.28;;;13.10;57.52
11648;BME280;5880;52.342;9.662;2023-02-23T04:35:12;100574.59;;;13.17;57.39
11648;BME280;5880;52.342;9.662;2023-02-23T04:37:38;100581.50;;;13.20;57.50
11648;BME280;5880;52.342;9.662;2023-02-23T04:40:06;100575.78;;;13.21;57.57
11648;BME280;5880;52.342;9.662;2023-02-23T04:42:32;100567.19;;;13.18;57.60
11648;BME280;5880;52.342;9.662;2023-02-23T04:44:57;100576.94;;;13.25;57.35
11648;BME280;5880;52.342;9.662;2023-02-23T04:47:24;100575.84;;;13.26;57.46
11648;BME280;5880;52.342;9.662;2023-02-23T04:49:49;100588.53;;;13.27;57.43
11648;BME280;5880;52.342;9.662;2023-02-23T04:52:15;100575.38;;;13.29;57.58
11648;BME280;5880;52.342;9.662;2023-02-23T04:54:41;100580.63;;;13.31;57.53
11648;BME280;5880;52.342;9.662;2023-02-23T04:57:08;100580.38;;;13.33;57.47
11648;BME280;5880;52.342;9.662;2023-02-23T04:59:34;100579.28;;;13.34;57.45
11648;BME280;5880;52.342;9.662;2023-02-23T05:02:00;100577.88;;;13.31;57.37
11648;BME280;5880;52.342;9.662;2023-02-23T05:04:25;100579.03;;;13.35;57.33
11648;BME280;5880;52.342;9.662;2023-02-23T05:06:51;100583.44;;;13.36;57.41
11648;BME280;5880;52.342;9.662;2023-02-23T05:09:17;100587.84;;;13.37;57.46
11648;BME280;5880;52.342;9.662;2023-02-23T05:11:43;100585.34;;;13.36;57.28
11648;BME280;5880;52.342;9.662;2023-02-23T05:14:08;100591.44;;;13.38;57.29
11648;BME280;5880;52.342;9.662;2023-02-23T05:16:35;100587.84;;;13.37;57.48
11648;BME280;5880;52.342;9.662;2023-02-23T05:19:00;100596.09;;;13.37;57.34
11648;BME280;5880;52.342;9.662;2023-02-23T05:21:26;100589.19;;;13.35;57.48
11648;BME280;5880;52.342;9.662;2023-02-23T05:23:52;100593.06;;;13.39;57.47
11648;BME280;5880;52.342;9.662;2023-02-23T05:26:17;100591.19;;;13.39;57.32
11648;BME280;5880;52.342;9.662;2023-02-23T05:28:43;100590.09;;;13.40;57.49
11648;BME280;5880;52.342;9.662;2023-02-23T05:31:12;100589.00;;;13.41;57.31
11648;BME280;5880;52.342;9.662;2023-02-23T05:33:37;100590.91;;;13.41;57.19
11648;BME280;5880;52.342;9.662;2023-02-23T05:36:14;100596.16;;;13.42;57.37
11648;BME280;5880;52.342;9.662;2023-02-23T05:38:44;100581.84;;;13.40;57.32
11648;BME280;5880;52.342;9.662;2023-02-23T05:41:14;100598.09;;;13.42;57.21
11648;BME280;5880;52.342;9.662;2023-02-23T05:43:40;100588.16;;;13.41;57.34
11648;BME280;5880;52.342;9.662;2023-02-23T05:46:11;100595.59;;;13.40;57.29
11648;BME280;5880;52.342;9.662;2023-02-23T05:48:38;100597.22;;;13.41;57.41
11648;BME280;5880;52.342;9.662;2023-02-23T05:51:08;100587.09;;;13.42;57.23
11648;BME280;5880;52.342;9.662;2023-02-23T05:53:34;100585.44;;;13.41;57.41
11648;BME280;5880;52.342;9.662;2023-02-23T05:56:05;100594.47;;;13.41;57.51
11648;BME280;5880;52.342;9.662;2023-02-23T05:58:31;100592.84;;;13.40;57.46
11648;BME280;5880;52.342;9.662;2023-02-23T06:00:57;100590.34;;;13.39;57.55
11648;BME280;5880;52.342;9.662;2023-02-23T06:03:23;100595.81;;;13.39;57.35
11648;BME280;5880;52.342;9.662;2023-02-23T06:05:56;100591.50;;;13.43;57.40
11648;BME280;5880;52.342;9.662;2023-02-23T06:08:23;100598.09;;;13.42;57.46
11648;BME280;5880;52.342;9.662;2023-02-23T06:10:50;100592.59;;;13.42;57.45
11648;BME280;5880;52.342;9.662;2023-02-23T06:13:16;100591.75;;;13.41;57.41
11648;BME280;5880;52.342;9.662;2023-02-23T06:15:43;100594.19;;;13.38;57.51
11648;BME280;5880;52.342;9.662;2023-02-23T06:18:09;100590.59;;;13.37;57.34
11648;BME280;5880;52.342;9.662;2023-02-23T06:20:36;100590.34;;;13.39;57.48
11648;BME280;5880;52.342;9.662;2023-02-23T06:23:03;100597.97;;;13.37;57.51
11648;BME280;5880;52.342;9.662;2023-02-23T06:25:29;100593.84;;;13.34;57.59
11648;BME280;5880;52.342;9.662;2023-02-23T06:27:55;100596.34;;;13.36;57.54
11648;BME280;5880;52.342;9.662;2023-02-23T06:30:21;100603.75;;;13.35;57.50
11648;BME280;5880;52.342;9.662;2023-02-23T06:32:48;100604.56;;;13.36;57.60
11648;BME280;5880;52.342;9.662;2023-02-23T06:35:13;100598.25;;;13.35;57.50
11648;BME280;5880;52.342;9.662;2023-02-23T06:37:39;100607.56;;;13.34;57.60
11648;BME280;5880;52.342;9.662;2023-02-23T06:40:06;100599.31;;;13.34;57.49
11648;BME280;5880;52.342;9.662;2023-02-23T06:42:31;100614.44;;;13.37;57.60
11648;BME280;5880;52.342;9.662;2023-02-23T06:44:57;100607.84;;;13.33;57.60
11648;BME280;5880;52.342;9.662;2023-02-23T06:47:23;100612.56;;;13.37;57.58
11648;BME280;5880;52.342;9.662;2023-02-23T06:49:48;100617.47;;;13.35;57.63
11648;BME280;5880;52.342;9.662;2023-02-23T06:52:14;100615.31;;;13.37;57.59
11648;BME280;5880;52.342;9.662;2023-02-23T06:54:40;100617.78;;;13.39;57.67
11648;BME280;5880;52.342;9.662;2023-02-23T06:57:07;100615.91;;;13.39;57.68
11648;BME280;5880;52.342;9.662;2023-02-23T06:59:33;100618.88;;;13.38;57.55
11648;BME280;5880;52.342;9.662;2023-02-23T07:01:59;100624.13;;;13.39;57.81
11648;BME280;5880;52.342;9.662;2023-02-23T07:04:24;100623.84;;;13.41;57.49
11648;BME280;5880;52.342;9.662;2023-02-23T07:06:51;100632.09;;;13.41;57.64
11648;BME280;5880;52.342;9.662;2023-02-23T07:09:17;100624.63;;;13.36;57.76
11648;BME280;5880;52.342;9.662;2023-02-23T07:11:43;100639.50;;;13.40;57.78
11648;BME280;5880;52.342;9.662;2023-02-23T07:14:10;100642.25;;;13.40;57.71
11648;BME280;5880;52.342;9.662;2023-02-23T07:16:37;100646.09;;;13.39;57.58
11648;BME280;5880;52.342;9.662;2023-02-23T07:19:04;100641.44;;;13.40;57.72
11648;BME280;5880;52.342;9.662;2023-02-23T07:21:31;100650.72;;;13.39;57.81
11648;BME280;5880;52.342;9.662;2023-02-23T07:23:58;100652.66;;;13.38;57.83
11648;BME280;5880;52.342;9.662;2023-02-23T07:26:24;100644.41;;;13.38;57.76
11648;BME280;5880;52.342;9.662;2023-02-23T07:28:50;100657.06;;;13.39;57.80
11648;BME280;5880;52.342;9.662;2023-02-23T07:31:16;100660.66;;;13.40;57.72
11648;BME280;5880;52.342;9.662;2023-02-23T07:33:42;100653.47;;;13.39;57.66
11648;BME280;5880;52.342;9.662;2023-02-23T07:36:08;100660.06;;;13.38;57.83
11648;BME280;5880;52.342;9.662;2023-02-23T07:38:34;100662.81;;;13.38;57.95
11648;BME280;5880;52.342;9.662;2023-02-23T07:41:01;100664.72;;;13.37;57.78
11648;BME280;5880;52.342;9.662;2023-02-23T07:43:27;100665.78;;;13.36;57.85
11648;BME280;5880;52.342;9.662;2023-02-23T07:45:53;100662.22;;;13.36;57.96
11648;BME280;5880;52.342;9.662;2023-02-23T07:48:19;100663.88;;;13.37;57.94
11648;BME280;5880;52.342;9.662;2023-02-23T07:50:45;100663.88;;;13.37;58.09
11648;BME280;5880;52.342;9.662;2023-02-23T07:53:12;100666.63;;;13.37;57.87
11648;BME280;5880;52.342;9.662;2023-02-23T07:55:38;100663.88;;;13.37;57.89
11648;BME280;5880;52.342;9.662;2023-02-23T07:58:05;100662.47;;;13.34;57.97
11648;BME280;5880;52.342;9.662;2023-02-23T08:00:32;100666.63;;;13.37;58.08
11648;BME280;5880;52.342;9.662;2023-02-23T08:02:59;100660.31;;;13.36;57.87
11648;BME280;5880;52.342;9.662;2023-02-23T08:05:26;100664.47;;;13.39;58.14
11648;BME280;5880;52.342;9.662;2023-02-23T08:07:53;100663.03;;;13.36;58.06
11648;BME280;5880;52.342;9.662;2023-02-23T08:10:21;100666.63;;;13.37;58.13
11648;BME280;5880;52.342;9.662;2023-02-23T08:12:47;100672.59;;;13.34;58.21
11648;BME280;5880;52.342;9.662;2023-02-23T08:15:12;100674.78;;;13.32;58.13
11648;BME280;5880;52.342;9.662;2023-02-23T08:17:39;100675.34;;;13.34;58.26
11648;BME280;5880;52.342;9.662;2023-02-23T08:20:07;100677.88;;;13.35;58.21
11648;BME280;5880;52.342;9.662;2023-02-23T08:22:33;100683.34;;;13.35;58.17
11648;BME280;5880;52.342;9.662;2023-02-23T08:24:58;100678.59;;;13.30;58.38
11648;BME280;5880;52.342;9.662;2023-02-23T08:27:25;100679.50;;;13.36;58.32
11648;BME280;5880;52.342;9.662;2023-02-23T08:29:55;100677.59;;;13.37;58.16
11648;BME280;5880;52.342;9.662;2023-02-23T08:32:21;100679.50;;;13.36;58.42
11648;BME280;5880;52.342;9.662;2023-02-23T08:34:46;100683.94;;;13.37;58.37
11648;BME280;5880;52.342;9.662;2023-02-23T08:37:13;100690.84;;;13.40;58.33
11648;BME280;5880;52.342;9.662;2023-02-23T08:39:38;100698.25;;;13.39;58.41
11648;BME280;5880;52.342;9.662;2023-02-23T08:42:04;100689.44;;;13.37;58.39
11648;BME280;5880;52.342;9.662;2023-02-23T08:44:29;100699.06;;;13.40;58.52
11648;BME280;5880;52.342;9.662;2023-02-23T08:46:56;100689.66;;;13.36;58.28
11648;BME280;5880;52.342;9.662;2023-02-23T08:49:24;100702.66;;;13.40;58.75
11648;BME280;5880;52.342;9.662;2023-02-23T08:51:50;100689.66;;;13.36;58.62
11648;BME280;5880;52.342;9.662;2023-02-23T08:54:16;100702.66;;;13.40;58.57
11648;BME280;5880;52.342;9.662;2023-02-23T08:56:43;100707.63;;;13.43;58.51
11648;BME280;5880;52.342;9.662;2023-02-23T08:59:11;100703.25;;;13.42;58.69
11648;BME280;5880;52.342;9.662;2023-02-23T09:01:37;100707.63;;;13.43;58.68
11648;BME280;5880;52.342;9.662;2023-02-23T09:04:04;100706.22;;;13.41;58.58
11648;BME280;5880;52.342;9.662;2023-02-23T09:06:31;100712.66;;;13.46;58.31
11648;BME280;5880;52.342;9.662;2023-02-23T09:08:59;100712.66;;;13.46;58.51
11648;BME280;5880;52.342;9.662;2023-02-23T09:11:25;100717.56;;;13.44;58.66
11648;BME280;5880;52.342;9.662;2023-02-23T09:13:51;100721.72;;;13.47;58.67
11648;BME280;5880;52.342;9.662;2023-02-23T09:16:17;100720.97;;;13.51;58.62
11648;BME280;5880;52.342;9.662;2023-02-23T09:18:43;100727.28;;;13.52;58.63
11648;BME280;5880;52.342;9.662;2023-02-23T09:21:16;100723.44;;;13.53;58.60
11648;BME280;5880;52.342;9.662;2023-02-23T09:23:47;100730.03;;;13.52;58.61
11648;BME280;5880;52.342;9.662;2023-02-23T09:26:14;100726.94;;;13.48;58.54
11648;BME280;5880;52.342;9.662;2023-02-23T09:28:41;100735.50;;;13.52;58.50
11648;BME280;5880;52.342;9.662;2023-02-23T09:31:14;100735.75;;;13.50;58.43
11648;BME280;5880;52.342;9.662;2023-02-23T09:33:41;100739.09;;;13.52;58.50
11648;BME280;5880;52.342;9.662;2023-02-23T09:36:13;100735.00;;;13.55;58.56
11648;BME280;5880;52.342;9.662;2023-02-23T09:38:44;100738.84;;;13.54;58.64
11648;BME280;5880;52.342;9.662;2023-02-23T09:41:41;100744.09;;;13.56;58.41
11648;BME280;5880;52.342;9.662;2023-02-23T09:44:29;100732.41;;;13.48;58.54
11648;BME280;5880;52.342;9.662;2023-02-23T09:47:37;100738.50;;;13.50;58.41
11648;BME280;5880;52.342;9.662;2023-02-23T09:52:46;100747.84;;;13.49;58.48
11648;BME280;5880;52.342;9.662;2023-02-23T09:55:14;100744.25;;;13.49;58.66
11648;BME280;5880;52.342;9.662;2023-02-23T09:57:46;100747.59;;;13.51;58.42
11648;BME280;5880;52.342;9.662;2023-02-23T10:00:22;100755.56;;;13.52;58.36
11648;BME280;5880;52.342;9.662;2023-02-23T10:03:10;100754.16;;;13.50;58.49
11648;BME280;5880;52.342;9.662;2023-02-23T10:05:49;100753.09;;;13.51;58.36
11648;BME280;5880;52.342;9.662;2023-02-23T10:11:26;100750.00;;;13.47;58.40
11648;BME280;5880;52.342;9.662;2023-02-23T10:14:44;100748.00;;;13.43;58.27
11648;BME280;5880;52.342;9.662;2023-02-23T10:18:54;100760.31;;;13.40;58.45
11648;BME280;5880;52.342;9.662;2023-02-23T10:21:04;100757.56;;;13.40;58.52
11648;BME280;5880;52.342;9.662;2023-02-23T10:23:46;100750.97;;;13.41;58.62
11648;BME280;5880;52.342;9.662;2023-02-23T10:26:24;100757.06;;;13.43;58.58
11648;BME280;5880;52.342;9.662;2023-02-23T10:28:55;100752.41;;;13.44;58.79
11648;BME280;5880;52.342;9.662;2023-02-23T10:31:44;100760.38;;;13.45;58.68
11648;BME280;5880;52.342;9.662;2023-02-23T10:34:16;100754.91;;;13.45;58.73
11648;BME280;5880;52.342;9.662;2023-02-23T10:36:59;100755.72;;;13.46;58.56
11648;BME280;5880;52.342;9.662;2023-02-23T10:39:30;100759.56;;;13.45;58.75
11648;BME280;5880;52.342;9.662;2023-02-23T10:42:02;100754.91;;;13.45;58.69
11648;BME280;5880;52.342;9.662;2023-02-23T10:44:30;100752.97;;;13.46;58.71
11648;BME280;5880;52.342;9.662;2023-02-23T10:47:01;100759.06;;;13.48;58.68
11648;BME280;5880;52.342;9.662;2023-02-23T10:49:54;100764.06;;;13.51;58.68
11648;BME280;5880;52.342;9.662;2023-02-23T10:52:36;100765.97;;;13.50;58.81
11648;BME280;5880;52.342;9.662;2023-02-23T10:55:06;100758.81;;;13.49;58.68
11648;BME280;5880;52.342;9.662;2023-02-23T10:57:37;100761.31;;;13.51;58.88
11648;BME280;5880;52.342;9.662;2023-02-23T11:00:25;100753.91;;;13.51;58.70
11648;BME280;5880;52.342;9.662;2023-02-23T11:02:58;100752.50;;;13.49;58.70
11648;BME280;5880;52.342;9.662;2023-02-23T11:05:46;100752.81;;;13.52;58.72
11648;BME280;5880;52.342;9.662;2023-02-23T11:08:50;100749.16;;;13.47;58.72
11648;BME280;5880;52.342;9.662;2023-02-23T11:13:49;100750.91;;;13.53;58.91
11648;BME280;5880;52.342;9.662;2023-02-23T11:16:22;100750.66;;;13.55;58.99
11648;BME280;5880;52.342;9.662;2023-02-23T11:18:58;100743.84;;;13.57;58.91
11648;BME280;5880;52.342;9.662;2023-02-23T11:21:32;100749.09;;;13.59;58.97
11648;BME280;5880;52.342;9.662;2023-02-23T11:24:22;100749.66;;;13.61;58.91
11648;BME280;5880;52.342;9.662;2023-02-23T11:26:53;100746.09;;;13.60;58.93
11648;BME280;5880;52.342;9.662;2023-02-23T11:29:37;100741.44;;;13.61;58.88
11648;BME280;5880;52.342;9.662;2023-02-23T11:32:18;100747.50;;;13.63;58.98
11648;BME280;5880;52.342;9.662;2023-02-23T11:34:46;100746.41;;;13.64;58.94
11648;BME280;5880;52.342;9.662;2023-02-23T11:39:59;100741.28;;;13.67;58.96
11648;BME280;5880;52.342;9.662;2023-02-23T11:42:32;100736.84;;;13.66;58.99
11648;BME280;5880;52.342;9.662;2023-02-23T11:45:16;100732.75;;;13.69;58.91
11648;BME280;5880;52.342;9.662;2023-02-23T11:47:47;100726.44;;;13.68;58.85
11648;BME280;5880;52.342;9.662;2023-02-23T11:50:30;100724.78;;;13.67;58.92
11648;BME280;5880;52.342;9.662;2023-02-23T11:53:18;100727.53;;;13.67;58.98
11648;BME280;5880;52.342;9.662;2023-02-23T11:55:54;100727.84;;;13.71;59.03
11648;BME280;5880;52.342;9.662;2023-02-23T11:58:28;100714.63;;;13.68;59.08
11648;BME280;5880;52.342;9.662;2023-02-23T12:01:06;100721.03;;;13.73;59.07
11648;BME280;5880;52.342;9.662;2023-02-23T12:03:54;100716.34;;;13.74;59.05
11648;BME280;5880;52.342;9.662;2023-02-23T12:06:39;100720.53;;;13.77;59.12
11648;BME280;5880;52.342;9.662;2023-02-23T12:09:31;100716.69;;;13.78;59.23
11648;BME280;5880;52.342;9.662;2023-02-23T12:12:16;100711.22;;;13.78;59.04
11648;BME280;5880;52.342;9.662;2023-02-23T12:14:54;100710.69;;;13.81;59.25
11648;BME280;5880;52.342;9.662;2023-02-23T12:17:39;100706.03;;;13.81;59.05
11648;BME280;5880;52.342;9.662;2023-02-23T12:20:36;100710.38;;;13.77;58.93
11648;BME280;5880;52.342;9.662;2023-02-23T12:23:12;100710.97;;;13.79;58.95
11648;BME280;5880;52.342;9.662;2023-02-23T12:26:11;100706.53;;;13.78;58.89
11648;BME280;5880;52.342;9.662;2023-02-23T12:31:48;100700.72;;;13.75;58.87
11648;BME280;5880;52.342;9.662;2023-02-23T12:37:40;100708.38;;;13.72;59.01
11648;BME280;5880;52.342;9.662;2023-02-23T12:40:15;100703.47;;;13.75;59.22
11648;BME280;5880;52.342;9.662;2023-02-23T12:43:01;100703.47;;;13.75;59.11
11648;BME280;5880;52.342;9.662;2023-02-23T12:46:07;100707.63;;;13.77;58.96
11648;BME280;5880;52.342;9.662;2023-02-23T12:49:08;100707.88;;;13.76;59.08
11648;BME280;5880;52.342;9.662;2023-02-23T12:51:44;100706.47;;;13.73;59.10
11648;BME280;5880;52.342;9.662;2023-02-23T12:54:16;100707.06;;;13.75;59.03
11648;BME280;5880;52.342;9.662;2023-02-23T13:00:01;100702.91;;;13.72;58.97
11648;BME280;5880;52.342;9.662;2023-02-23T13:06:17;100707.81;;;13.70;59.07
11648;BME280;5880;52.342;9.662;2023-02-23T13:09:07;100707.81;;;13.70;58.94
11648;BME280;5880;52.342;9.662;2023-02-23T13:12:12;100708.03;;;13.69;58.77
11648;BME280;5880;52.342;9.662;2023-02-23T13:14:59;100707.47;;;13.67;58.87
11648;BME280;5880;52.342;9.662;2023-02-23T13:17:59;100712.94;;;13.67;58.79
11648;BME280;5880;52.342;9.662;2023-02-23T13:20:32;100707.72;;;13.65;58.96
11648;BME280;5880;52.342;9.662;2023-02-23T13:26:11;100701.88;;;13.62;58.90
11648;BME280;5880;52.342;9.662;2023-02-23T13:29:24;100702.72;;;13.62;58.86
11648;BME280;5880;52.342;9.662;2023-02-23T13:31:54;100700.25;;;13.61;59.02
11648;BME280;5880;52.342;9.662;2023-02-23T13:34:28;100706.88;;;13.65;58.85
11648;BME280;5880;52.342;9.662;2023-02-23T13:36:59;100705.22;;;13.64;58.96
11648;BME280;5880;52.342;9.662;2023-02-23T13:43:00;100698.91;;;13.63;58.87
11648;BME280;5880;52.342;9.662;2023-02-23T13:46:25;100706.56;;;13.61;58.83
11648;BME280;5880;52.342;9.662;2023-02-23T13:48:34;100701.31;;;13.60;58.94
11648;BME280;5880;52.342;9.662;2023-02-23T13:51:18;100698.31;;;13.61;58.93
11648;BME280;5880;52.342;9.662;2023-02-23T13:56:54;100701.88;;;13.62;58.93
11648;BME280;5880;52.342;9.662;2023-02-23T13:59:27;100699.06;;;13.57;58.87
11648;BME280;5880;52.342;9.662;2023-02-23T14:01:55;100705.72;;;13.61;58.95
11648;BME280;5880;52.342;9.662;2023-02-23T14:04:28;100703.81;;;13.61;58.95
11648;BME280;5880;52.342;9.662;2023-02-23T14:07:17;100701.06;;;13.61;58.93
11648;BME280;5880;52.342;9.662;2023-02-23T14:09:56;100702.16;;;13.60;58.86
11648;BME280;5880;52.342;9.662;2023-02-23T14:12:38;100704.81;;;13.55;58.95
11648;BME280;5880;52.342;9.662;2023-02-23T14:17:58;100704.56;;;13.57;58.96
11648;BME280;5880;52.342;9.662;2023-02-23T14:23:29;100707.91;;;13.59;59.00
11648;BME280;5880;52.342;9.662;2023-02-23T14:26:37;100709.22;;;13.56;58.92
11648;BME280;5880;52.342;9.662;2023-02-23T14:29:19;100708.97;;;13.58;59.20
11648;BME280;5880;52.342;9.662;2023-02-23T14:31:59;100703.00;;;13.61;59.14
11648;BME280;5880;52.342;9.662;2023-02-23T14:34:54;100700.25;;;13.61;59.06
11648;BME280;5880;52.342;9.662;2023-02-23T14:37:35;100701.06;;;13.61;59.24